x

South Bermuda - 300 Nm Sse Of Bermuda (41049) Wave Buoy

4:50am - Tue 27th Jan 2015 All times are UTC.

  • Sig Wave height 8.2ft
  • Swell Direction
  • Peak Period 6s
  • Average Period 6s
  • Wind
    27mph, 31mph gusts
  • Sea Temp 75°f
  • Air Temp 76°f
  • Sea Pressure 1012.9mb

More Historic Weather Station data

Upgrade to MSW Pro to gain access to the past 30 days of data for over 8000 Wavebouys and Weather Stations around the globe.

Join Pro

Comparision Forecast

View Surf forecast
   
Tue 01/27 4:50am 8ft 6s 6s 27 31 mph 1012.9mb 75f 76f
3:50am 7.5ft 6s 6s 25 31 mph 1013.7mb 75f 76f
2:50am 7ft 10s 6s 22 29 mph 1014.3mb 75f 76f
1:50am 7ft 10s 6s 22 29 mph 1014.2mb 75f 76f
12:50am 7ft 10s 6s 20 25 mph 1014.8mb 75f 76f
Mon 01/26 11:50pm 6.5ft 10s 6s 18 22 mph 1014.9mb 75f 74f
10:50pm 6ft 10s 6s 20 25 mph 1014.6mb 75f 76f
9:50pm 6ft 11s 6s 22 27 mph 1014mb 76f 75f
8:50pm 6.5ft 11s 6s 18 22 mph 1014.1mb 76f 76f
7:50pm 6.5ft 11s 7s 18 20 mph 1014.2mb 76f 76f
6:50pm 6ft 10s 6s 16 20 mph 1014.1mb 76f 76f
5:50pm 6ft 11s 6s 18 22 mph 1014.4mb 76f 76f
4:50pm 6ft 11s 7s 16 20 mph 1015.1mb 76f 76f
3:50pm 6ft 11s 6s 16 18 mph 1016mb 75f 76f
2:50pm 5.5ft 11s 7s 13 18 mph 1016.3mb 75f 76f
1:50pm 6ft 12s 7s 11 13 mph 1016.7mb 75f 76f
12:50pm 5.5ft 11s 7s 11 13 mph 1016.4mb 75f 76f
11:50am 6ft 12s 7s 11 13 mph 1016.2mb 75f 76f
10:50am 6ft 13s 7s 11 13 mph 1015.9mb 75f 75f
9:50am 5ft 12s 7s 11 13 mph 1015.6mb 75f 75f
8:50am 4.5ft 12s 6s 11 13 mph 1015.3mb 75f 75f
7:50am 4.5ft 13s 6s 11
mph
1015.4mb 75f 75f
6:50am 4.5ft 6s 6s 13
mph
1015.4mb 75f 75f
5:50am 4.5ft 6s 6s 11 13 mph 1015.5mb 75f 75f
4:50am 4.5ft 6s 6s 11 13 mph 1015.9mb 75f 75f
3:50am 4.5ft 6s 6s 7 9 mph 1016mb 75f 75f
2:50am 5ft 6s 6s 9 11 mph 1016.2mb 75f 75f
1:50am 5ft 6s 6s 4 7 mph 1016.2mb 75f 76f
12:50am 4.5ft 6s 6s 7 9 mph 1016mb 75f 76f
Sun 01/25 11:50pm 4.5ft 6s 5s 9 11 mph 1016.2mb 75f 76f
10:50pm 4.5ft 6s 5s 13 16 mph 1015.6mb 75f 76f
9:50pm 5ft 6s 5s 11 13 mph 1015.1mb 75f 75f
8:50pm 5.5ft 7s 6s 13 18 mph 1014.6mb 75f 76f
7:50pm 5.5ft 6s 6s 16 18 mph 1014.3mb 75f 76f
6:50pm 5ft 6s 5s 18 20 mph 1014.1mb 75f 76f
5:50pm 5.5ft 6s 5s 18 20 mph 1014.2mb 75f 76f
4:50pm 6ft 6s 5s 20 25 mph 1014.5mb 75f 76f
3:50pm 6.5ft 6s 5s 18 22 mph 1015.4mb 75f 76f
2:50pm 6.5ft 6s 5s 20 22 mph 1016.2mb 75f 76f
1:50pm 6ft 6s 5s 18 25 mph 1016mb 75f 76f
12:50pm 6.5ft 6s 5s 16 20 mph 1015mb 75f 76f
11:50am 6ft 6s 6s 20 25 mph 1014.5mb 75f 76f
10:50am 6ft 6s 5s 18 22 mph 1013.7mb 75f 72f
9:50am 6ft 11s 5s 22 29 mph 1013.4mb 75f 75f
8:50am 6ft 5s 5s 18 22 mph 1013.4mb 75f 74f
7:50am 6ft 9s 6s 22 25 mph 1013.5mb 75f 75f
6:50am 6ft 10s 6s 18 27 mph 1014.4mb 75f 75f
5:50am 5.5ft 11s 6s 13 18 mph 1015.4mb 75f 73f
4:50am 5.5ft 11s 6s 20 25 mph 1015.4mb 75f 75f
3:50am 6ft 10s 6s 18 22 mph 1016.2mb 75f 75f
2:50am 6ft 10s 6s 16 22 mph 1017.3mb 75f 75f
1:50am 5.5ft 10s 6s 16 20 mph 1017.5mb 75f 75f
12:50am 6ft 9s 6s 20 25 mph 1017.6mb 75f 75f
Sat 01/24 11:50pm 6ft 11s 6s 20 22 mph 1017.4mb 75f 75f
10:50pm 5ft 9s 6s 18 22 mph 1016.9mb 75f 75f
9:50pm 5.5ft 9s 6s 18 20 mph 1016.3mb 75f 74f
8:50pm 6ft 10s 6s 18 20 mph 1016.3mb 75f 74f
7:50pm 5ft 8s 6s 20 22 mph 1016.4mb 75f 74f
6:50pm 5.5ft 8s 6s 16 20 mph 1017mb 75f 74f
5:50pm 5.5ft 10s 6s 16 18 mph 1017.5mb 75f 73f
4:50pm 6ft 9s 7s 16 18 mph 1018.2mb 75f 73f
3:50pm 6ft 9s 6s 16 20 mph 1019.2mb 75f 73f
2:50pm 5.5ft 8s 6s 16 18 mph 1019.8mb 75f 72f
1:50pm 5.5ft 9s 6s 13 18 mph 1020mb 75f 72f
12:50pm 6ft 7s 6s 13 16 mph 1019.8mb 75f 72f
11:50am 6ft 8s 6s 13 16 mph 1019.6mb 75f 71f
10:50am 6ft 9s 6s 13 16 mph 1019.4mb 75f 71f
9:50am 5.5ft 8s 6s 11 16 mph 1019mb 75f 71f
8:50am 5.5ft 7s 6s 11 16 mph 1018.4mb 75f 71f
7:50am 5ft 7s 6s 13 16 mph 1018.6mb 75f 71f
6:50am 5.5ft 6s 6s 11 16 mph 1019mb 75f 71f
5:50am 5.5ft 8s 6s 13 16 mph 1019.3mb 75f 71f
4:50am 5.5ft 8s 6s 16 18 mph 1019.4mb 75f 71f
3:50am 5ft 9s 5s 16 20 mph 1019.9mb 75f 72f
2:50am 5ft 9s 5s 18 20 mph 1020.1mb 75f 72f
1:50am 5ft 10s 5s 18 22 mph 1020.2mb 75f 70f
12:50am 4.5ft 8s 5s 16 20 mph 1020.1mb 75f 69f
Fri 01/23 11:50pm 4.5ft 9s 5s 22 25 mph 1019.6mb 75f 70f
10:50pm 4.5ft 10s 6s 16 20 mph 1019.6mb 75f 71f
9:50pm 4.5ft 10s 6s 16 18 mph 1019.2mb 76f 71f
8:50pm 4.5ft 9s 6s 11 16 mph 1018.6mb 76f 73f
7:50pm 4.5ft 10s 6s 16 18 mph 1018.7mb 76f 73f
6:50pm 4.5ft 10s 7s 11 13 mph 1018.6mb 76f 73f
5:50pm 4.5ft 10s 7s 11 16 mph 1018.9mb 76f 73f
4:50pm 4.5ft 9s 6s 11 16 mph 1019.2mb 76f 72f
3:50pm 4.5ft 9s 6s 7 11 mph 1019.6mb 75f 72f
2:50pm 4.5ft 9s 6s 7 11 mph 1020.2mb 75f 72f
1:50pm 5ft 9s 6s 9 13 mph 1020.5mb 75f 72f
12:50pm 4.5ft 10s 6s 11 13 mph 1019.9mb 75f 71f
11:50am 5ft 7s 6s 11 13 mph 1019.3mb 75f 71f
10:50am 5ft 9s 7s 13 18 mph 1018.9mb 75f 71f
9:50am 4.5ft 10s 6s 13 16 mph 1018.4mb 75f 71f
8:50am 5ft 8s 7s 11 13 mph 1017.8mb 75f 72f
7:50am 5ft 8s 7s 7 11 mph 1017.8mb 75f 72f
6:50am 4.5ft 9s 6s 9 13 mph 1018.1mb 75f 72f